Skip to main content.
 TIME   TEMPERATURE   WINDSPEED   DIRECTION   HUMIDITY   BAROMETER   RAINFALL 
22:45 13.0°C (55.4°F) 9.3 kmh (5.8 mph) SE 76% 1013.9hPa (29.94 inHg) 0.0mm (0.00 in.)
21:45 13.0°C (55.4 °F) 11.1 kmh (6.9 mph) ESE 81% 1013.9hPa (29.94 inHg) 0.0mm (0.00 in.)
20:45 14.0°C (57.2 °F) 7.4 kmh (4.6 mph) ESE 71% 1013.9hPa (29.94 inHg) 0.0mm (0.00 in.)
19:45 14.0°C (57.2 °F) 5.6 kmh (3.5 mph) E 71% 1014.9hPa (29.97 inHg) 0.0mm (0.00 in.)
18:45 14.0°C (57.2 °F) 5.6 kmh (3.5 mph) E 71% 1013.9hPa (29.94 inHg) 0.0mm (0.00 in.)
17:45 15.0°C (59.0 °F) 5.6 kmh (3.5 mph) E 67% 1013.9hPa (29.94 inHg) 0.0mm (0.00 in.)
16:45 16.0°C (60.8 °F) 11.1 kmh (6.9 mph) E 63% 1013.9hPa (29.94 inHg) 0.0mm (0.00 in.)
15:45 16.0°C (60.8 °F) 13.0 kmh (8.1 mph) E 67% 1014.9hPa (29.97 inHg) 0.0mm (0.00 in.)
14:45 16.0°C (60.8 °F) 13.0 kmh (8.1 mph) ENE 67% 1014.9hPa (29.97 inHg) 0.0mm (0.00 in.)
13:45 17.0°C (62.6 °F) 16.7 kmh (10.4 mph) ENE 63% 1014.9hPa (29.97 inHg) 0.0mm (0.00 in.)
12:45 17.0°C (62.6 °F) 16.7 kmh (10.4 mph) NE 63% 1015.9hPa (30.00 inHg) 0.0mm (0.00 in.)
11:45 17.0°C (62.6 °F) 18.5 kmh (11.5 mph) ENE 63% 1016.9hPa (30.03 inHg) 0.0mm (0.00 in.)
10:45 16.0°C (60.8 °F) 16.7 kmh (10.4 mph) NE 72% 1016.9hPa (30.03 inHg) 0.0mm (0.00 in.)
9:45 16.0°C (60.8 °F) 18.5 kmh (11.5 mph) ENE 72% 1016.9hPa (30.03 inHg) 0.0mm (0.00 in.)
8:45 16.0°C (60.8 °F) 14.8 kmh (9.2 mph) ENE 72% 1016.9hPa (30.03 inHg) 0.0mm (0.00 in.)
7:45 16.0°C (60.8 °F) 16.7 kmh (10.4 mph) ENE 72% 1016.9hPa (30.03 inHg) 0.0mm (0.00 in.)
6:45 15.0°C (59.0 °F) 20.4 kmh (12.7 mph) ENE 72% 1016.9hPa (30.03 inHg) 0.0mm (0.00 in.)
5:40 16.0°C (60.8 °F) 20.4 kmh (12.7 mph) NE 67% 1016.9hPa (30.03 inHg) 0.0mm (0.00 in.)
4:40 16.0°C (60.8 °F) 27.8 kmh (17.3 mph) NE 67% 1015.9hPa (30.00 inHg) 0.0mm (0.00 in.)
3:40 16.0°C (60.8 °F) 27.8 kmh (17.3 mph) NE 72% 1015.9hPa (30.00 inHg) 0.0mm (0.00 in.)
2:40 16.0°C (60.8 °F) 27.8 kmh (17.3 mph) NE 72% 1015.9hPa (30.00 inHg) 0.0mm (0.00 in.)
1:40 16.0°C (60.8 °F) 31.5 kmh (19.6 mph) NE 77% 1015.9hPa (30.00 inHg) 0.0mm (0.00 in.)
0:40 16.0°C (60.8 °F) 37.0 kmh (23.0 mph) NE 77% 1015.9hPa (30.00 inHg) 0.0mm (0.00 in.)
23:39 16.0°C (60.8 °F) 40.7 kmh (25.3 mph) NE 77% 1015.9hPa (30.00 inHg) 0.0mm (0.00 in.)